Time;durP1;ratioP1;P1;durP2;ratioP2;P2;SDS_P1;SDS_P2;PMS_P1;PMS_P2;Temp;Humidity;BMP_temperature;BMP_pressure;BME280_temperature;BME280_humidity;BME280_pressure;Samples;Min_cycle;Max_cycle;Signal;HPM_P1;HPM_P2
2022/10/13 00:00:49;;;;;;;14.15;8.95;;;13.30;99.90;;;;;;5083967;28;20100;-84
2022/10/13 00:03:16;;;;;;;15.40;7.63;;;13.30;99.90;;;;;;5081255;28;20075;-84
2022/10/13 00:05:48;;;;;;;12.63;6.80;;;13.30;99.90;;;;;;5096932;28;20040;-83
2022/10/13 00:08:18;;;;;;;14.75;6.57;;;13.30;99.90;;;;;;5087133;28;20056;-83
2022/10/13 00:10:47;;;;;;;16.13;7.20;;;13.20;99.90;;;;;;5066395;28;20498;-83
2022/10/13 00:13:14;;;;;;;14.15;8.05;;;13.20;99.90;;;;;;5085537;28;20494;-84
2022/10/13 00:15:43;;;;;;;14.82;8.63;;;13.20;99.90;;;;;;5093333;28;20048;-83
2022/10/13 00:18:10;;;;;;;17.50;8.45;;;13.10;99.90;;;;;;5086679;28;20067;-84
2022/10/13 00:20:43;;;;;;;18.38;7.60;;;13.10;99.90;;;;;;5064278;28;20143;-84
2022/10/13 00:23:10;;;;;;;14.10;8.35;;;13.10;99.90;;;;;;5088523;28;20048;-84
2022/10/13 00:25:45;;;;;;;16.40;8.50;;;13.10;99.90;;;;;;5080221;28;20052;-84
2022/10/13 00:28:14;;;;;;;13.68;8.52;;;13.00;99.90;;;;;;5082672;28;20151;-83
2022/10/13 00:30:41;;;;;;;16.35;7.55;;;13.00;99.90;;;;;;5080014;28;20465;-83
2022/10/13 00:33:10;;;;;;;25.67;10.00;;;13.00;99.90;;;;;;5087753;28;20059;-83
2022/10/13 00:35:46;;;;;;;22.33;9.20;;;12.90;99.90;;;;;;5081530;28;20048;-83
2022/10/13 00:38:13;;;;;;;12.27;7.53;;;12.90;99.90;;;;;;5067464;28;20048;-82
2022/10/13 00:40:58;;;;;;;13.32;7.82;;;13.00;99.90;;;;;;5075013;28;20417;-83
2022/10/13 00:43:46;;;;;;;15.93;6.90;;;12.90;99.90;;;;;;5095592;28;20108;-84
2022/10/13 00:46:14;;;;;;;15.20;6.68;;;12.90;99.90;;;;;;5090597;28;20135;-82
2022/10/13 00:48:43;;;;;;;14.65;8.43;;;12.90;99.90;;;;;;5085104;28;20055;-83
2022/10/13 00:51:13;;;;;;;13.02;7.88;;;12.90;99.90;;;;;;5076610;28;20080;-83
2022/10/13 00:53:40;;;;;;;15.57;7.65;;;12.90;99.90;;;;;;5056248;28;20072;-84
2022/10/13 00:56:09;;;;;;;16.65;7.30;;;12.80;99.90;;;;;;5059914;28;20056;-84
2022/10/13 00:58:37;;;;;;;15.52;8.25;;;12.80;99.90;;;;;;5094756;28;20135;-84
2022/10/13 01:01:05;;;;;;;11.35;7.40;;;12.80;99.90;;;;;;5094105;28;20079;-83
2022/10/13 01:03:33;;;;;;;12.68;6.47;;;12.70;99.90;;;;;;5067465;28;20520;-84
2022/10/13 01:06:02;;;;;;;12.05;7.40;;;12.70;99.90;;;;;;5086904;28;20051;-83
2022/10/13 01:08:30;;;;;;;10.63;7.43;;;12.60;99.90;;;;;;5099635;28;20086;-83
2022/10/13 01:11:31;;;;;;;21.58;7.30;;;12.60;99.90;;;;;;5098534;28;20058;-84
2022/10/13 01:14:04;;;;;;;14.82;7.15;;;12.60;99.90;;;;;;5090629;28;20127;-82
2022/10/13 01:16:45;;;;;;;14.90;7.13;;;12.60;99.90;;;;;;5105201;28;20052;-83
2022/10/13 01:19:33;;;;;;;13.00;7.40;;;12.50;99.90;;;;;;5093965;28;20068;-82
2022/10/13 01:22:18;;;;;;;16.27;7.80;;;12.50;99.90;;;;;;5085124;28;20051;-82
2022/10/13 01:25:01;;;;;;;17.42;8.07;;;12.50;99.90;;;;;;5085062;28;20399;-82
2022/10/13 01:28:12;;;;;;;14.07;7.22;;;12.40;99.90;;;;;;5091156;28;20056;-83
2022/10/13 01:30:55;;;;;;;11.63;8.02;;;12.40;99.90;;;;;;5080227;28;20516;-82
2022/10/13 01:33:28;;;;;;;14.02;7.13;;;12.40;99.90;;;;;;5070843;28;20051;-84
2022/10/13 01:36:16;;;;;;;12.95;6.45;;;12.30;99.90;;;;;;5093544;28;20052;-83
2022/10/13 01:39:02;;;;;;;10.52;6.93;;;12.40;99.90;;;;;;5081943;28;20135;-82
2022/10/13 01:41:38;;;;;;;13.10;7.05;;;12.40;99.90;;;;;;5066365;28;20131;-84
2022/10/13 01:44:04;;;;;;;20.10;8.65;;;12.40;99.90;;;;;;5089838;28;20111;-84
2022/10/13 01:46:34;;;;;;;24.63;10.07;;;12.40;99.90;;;;;;5089668;28;20045;-83
2022/10/13 01:49:05;;;;;;;17.98;9.65;;;12.40;99.90;;;;;;5045925;28;20136;-84
2022/10/13 01:51:34;;;;;;;19.88;11.20;;;12.40;99.90;;;;;;5089406;28;20131;-81
2022/10/13 01:54:00;;;;;;;17.27;8.48;;;12.40;99.90;;;;;;5068286;28;20052;-82
2022/10/13 01:56:27;;;;;;;20.25;7.90;;;12.40;99.90;;;;;;5078550;28;20428;-81
2022/10/13 01:58:57;;;;;;;12.07;7.18;;;12.40;99.90;;;;;;5082739;28;20126;-82
2022/10/13 02:01:42;;;;;;;13.35;6.95;;;12.40;99.90;;;;;;5091734;28;20052;-81
2022/10/13 02:04:19;;;;;;;13.77;6.60;;;12.40;99.90;;;;;;5083696;28;20213;-82
2022/10/13 02:07:00;;;;;;;17.88;7.22;;;12.30;99.90;;;;;;5044376;28;20049;-82
2022/10/13 02:09:46;;;;;;;11.27;7.90;;;12.30;99.90;;;;;;5083120;28;20183;-83
2022/10/13 02:12:50;;;;;;;16.98;6.95;;;12.30;99.90;;;;;;5086184;28;20054;-82
2022/10/13 02:15:23;;;;;;;14.50;6.88;;;12.20;99.90;;;;;;5068520;28;20056;-82
2022/10/13 02:17:51;;;;;;;15.05;6.80;;;12.20;99.90;;;;;;5091884;28;20050;-82
2022/10/13 02:20:19;;;;;;;14.65;6.32;;;12.20;99.90;;;;;;5087222;28;20044;-82
2022/10/13 02:22:49;;;;;;;17.98;6.70;;;12.20;99.90;;;;;;5087007;28;20045;-82
2022/10/13 02:25:16;;;;;;;10.82;6.60;;;12.20;99.90;;;;;;5066400;28;20409;-82
2022/10/13 02:27:42;;;;;;;14.10;6.97;;;12.20;99.90;;;;;;5074254;28;20048;-82
2022/10/13 02:30:18;;;;;;;11.25;6.50;;;12.20;99.90;;;;;;5068732;28;20410;-82
2022/10/13 02:32:45;;;;;;;9.98;6.10;;;12.20;99.90;;;;;;5072366;28;20078;-82
2022/10/13 02:35:11;;;;;;;15.75;6.05;;;12.20;99.90;;;;;;5087837;28;20557;-82
2022/10/13 02:37:38;;;;;;;10.52;5.43;;;12.10;99.90;;;;;;5091787;28;20048;-83
2022/10/13 02:40:05;;;;;;;10.63;7.20;;;12.10;99.90;;;;;;5064777;28;20135;-82
2022/10/13 02:42:32;;;;;;;17.83;7.00;;;12.10;99.90;;;;;;5085941;28;20054;-84
2022/10/13 02:44:59;;;;;;;15.75;6.80;;;12.10;99.90;;;;;;5077539;28;20064;-81
2022/10/13 02:47:25;;;;;;;13.43;6.57;;;12.00;99.90;;;;;;5068762;28;20087;-82
2022/10/13 02:49:52;;;;;;;8.60;5.93;;;12.00;99.90;;;;;;5076371;28;20509;-83
2022/10/13 02:52:19;;;;;;;12.18;6.18;;;12.00;99.90;;;;;;5046493;28;20135;-82
2022/10/13 02:54:46;;;;;;;7.85;6.03;;;12.00;99.90;;;;;;5074378;28;20111;-84
2022/10/13 02:57:13;;;;;;;11.85;6.25;;;12.00;99.90;;;;;;5084972;28;20048;-83
2022/10/13 02:59:39;;;;;;;10.95;6.25;;;12.00;99.90;;;;;;5080811;28;20505;-82
2022/10/13 03:02:06;;;;;;;18.20;7.20;;;12.00;99.90;;;;;;5091029;28;20049;-83
2022/10/13 03:04:33;;;;;;;12.70;5.95;;;12.00;99.90;;;;;;5090849;28;20051;-83
2022/10/13 03:07:00;;;;;;;12.02;6.97;;;12.00;99.90;;;;;;5084852;28;20079;-82
2022/10/13 03:09:27;;;;;;;10.40;6.60;;;12.00;99.90;;;;;;5082668;28;20048;-84
2022/10/13 03:11:54;;;;;;;14.52;6.55;;;11.90;99.90;;;;;;5095379;28;20072;-82
2022/10/13 03:14:20;;;;;;;10.52;6.63;;;11.90;99.90;;;;;;5088696;28;20552;-81
2022/10/13 03:16:47;;;;;;;13.40;7.00;;;11.90;99.90;;;;;;5082408;28;20459;-84
2022/10/13 03:19:14;;;;;;;13.25;6.97;;;11.90;99.90;;;;;;5087964;28;20075;-82
2022/10/13 03:21:41;;;;;;;9.38;6.70;;;11.90;99.90;;;;;;5090169;28;20052;-83
2022/10/13 03:24:08;;;;;;;8.50;6.30;;;11.90;99.90;;;;;;5084642;28;20082;-83
2022/10/13 03:26:35;;;;;;;15.45;6.82;;;11.90;99.90;;;;;;5078959;28;20049;-82
2022/10/13 03:29:02;;;;;;;11.45;6.45;;;11.90;99.90;;;;;;5073415;28;20052;-83
2022/10/13 03:31:29;;;;;;;12.07;7.47;;;11.90;99.90;;;;;;5082269;28;20055;-83
2022/10/13 03:33:56;;;;;;;9.40;6.15;;;11.80;99.90;;;;;;5082021;28;20048;-82
2022/10/13 03:36:23;;;;;;;12.43;6.75;;;11.80;99.90;;;;;;5083870;28;20044;-82
2022/10/13 03:38:50;;;;;;;13.73;7.65;;;11.80;99.90;;;;;;5091493;28;20078;-82
2022/10/13 03:41:18;;;;;;;14.55;7.95;;;11.80;99.90;;;;;;5086014;28;20059;-82
2022/10/13 03:43:44;;;;;;;14.18;7.45;;;11.80;99.90;;;;;;5080168;28;20047;-83
2022/10/13 03:46:13;;;;;;;12.63;6.97;;;11.80;99.90;;;;;;5090943;28;20058;-83
2022/10/13 03:48:40;;;;;;;17.48;7.68;;;11.80;99.90;;;;;;5089056;28;20047;-83
2022/10/13 03:51:10;;;;;;;12.80;7.50;;;11.80;99.90;;;;;;5084312;28;20075;-82
2022/10/13 03:53:37;;;;;;;18.77;7.53;;;11.80;99.90;;;;;;5085022;28;20062;-82
2022/10/13 03:56:05;;;;;;;12.30;6.50;;;11.80;99.90;;;;;;5092993;28;20219;-83
2022/10/13 03:58:32;;;;;;;10.30;6.60;;;11.80;99.90;;;;;;5085393;28;20136;-83
2022/10/13 04:01:04;;;;;;;15.45;7.53;;;11.90;99.90;;;;;;5063132;28;20055;-83
2022/10/13 04:03:33;;;;;;;13.73;8.32;;;11.90;99.90;;;;;;5069466;28;20071;-83
2022/10/13 04:06:01;;;;;;;16.13;7.45;;;11.90;99.90;;;;;;5090251;28;20050;-82
2022/10/13 04:08:32;;;;;;;13.20;6.90;;;11.90;99.90;;;;;;5079992;28;20128;-83
2022/10/13 04:11:04;;;;;;;15.70;7.40;;;11.90;99.90;;;;;;5073118;28;20420;-81
2022/10/13 04:13:31;;;;;;;11.32;7.00;;;12.00;99.90;;;;;;5085138;28;20067;-84
2022/10/13 04:16:05;;;;;;;13.18;7.93;;;11.90;99.90;;;;;;5088894;28;20056;-83
2022/10/13 04:18:32;;;;;;;13.27;7.18;;;12.00;99.90;;;;;;5081933;28;20048;-82
2022/10/13 04:20:59;;;;;;;16.95;7.35;;;12.00;99.90;;;;;;5088899;28;20076;-85
2022/10/13 04:23:26;;;;;;;14.65;7.28;;;12.00;99.90;;;;;;5091024;28;20158;-84
2022/10/13 04:25:52;;;;;;;11.70;7.03;;;12.00;99.90;;;;;;5085741;28;20048;-83
2022/10/13 04:28:19;;;;;;;11.93;6.65;;;11.90;99.90;;;;;;5080746;28;20055;-83
2022/10/13 04:30:46;;;;;;;14.18;7.18;;;12.00;99.90;;;;;;5095079;28;20072;-84
2022/10/13 04:33:15;;;;;;;15.07;8.30;;;11.90;99.90;;;;;;5084732;28;20135;-82
2022/10/13 04:35:42;;;;;;;29.75;10.57;;;12.00;99.90;;;;;;5081225;28;20048;-84
2022/10/13 04:38:08;;;;;;;35.08;10.25;;;11.90;99.90;;;;;;5085830;28;20099;-83
2022/10/13 04:40:35;;;;;;;71.38;12.35;;;12.00;99.90;;;;;;5092846;28;20477;-83
2022/10/13 04:43:02;;;;;;;22.20;10.68;;;12.00;99.90;;;;;;5086941;28;20045;-84
2022/10/13 04:45:29;;;;;;;23.35;11.75;;;12.10;99.90;;;;;;5080766;28;20051;-83
2022/10/13 04:47:56;;;;;;;25.33;11.27;;;12.00;99.90;;;;;;5074264;28;20135;-83
2022/10/13 04:50:22;;;;;;;33.50;13.30;;;12.10;99.90;;;;;;5093156;28;20154;-84
2022/10/13 04:52:49;;;;;;;26.63;11.40;;;12.10;99.90;;;;;;5083830;28;20060;-84
2022/10/13 04:55:16;;;;;;;32.13;13.73;;;12.20;99.90;;;;;;5084045;28;20406;-82
2022/10/13 04:57:42;;;;;;;27.83;12.27;;;12.20;99.90;;;;;;5092661;28;20059;-83
2022/10/13 05:00:10;;;;;;;39.80;14.10;;;12.10;99.90;;;;;;5086701;28;20048;-84
2022/10/13 05:02:36;;;;;;;24.35;11.63;;;12.20;99.90;;;;;;5079378;28;20052;-82
2022/10/13 05:05:04;;;;;;;25.08;12.82;;;12.20;99.90;;;;;;5086926;28;20059;-84
2022/10/13 05:07:31;;;;;;;23.67;10.45;;;12.20;99.90;;;;;;5090260;28;20049;-84
2022/10/13 05:09:58;;;;;;;26.63;11.88;;;12.20;99.90;;;;;;5081976;28;20049;-84
2022/10/13 05:12:25;;;;;;;27.67;11.80;;;12.10;99.90;;;;;;5088515;28;20055;-82
2022/10/13 05:14:51;;;;;;;28.45;12.73;;;12.20;99.90;;;;;;5104919;28;20052;-81
2022/10/13 05:17:18;;;;;;;22.50;12.07;;;12.10;99.90;;;;;;5092571;28;20048;-83
2022/10/13 05:19:45;;;;;;;26.00;12.02;;;12.10;99.90;;;;;;5064202;28;20420;-83
2022/10/13 05:22:12;;;;;;;29.42;13.07;;;12.10;99.90;;;;;;5079960;28;20210;-82
2022/10/13 05:24:39;;;;;;;22.33;12.48;;;12.10;99.90;;;;;;5091981;28;20048;-83
2022/10/13 05:27:09;;;;;;;18.70;10.55;;;12.10;99.90;;;;;;5090358;28;20048;-81
2022/10/13 05:29:36;;;;;;;21.33;11.13;;;12.00;99.90;;;;;;5063581;28;20058;-83
2022/10/13 05:32:03;;;;;;;28.40;11.93;;;12.00;99.90;;;;;;5074634;28;20044;-82
2022/10/13 05:34:31;;;;;;;24.80;11.23;;;12.00;99.90;;;;;;5090655;28;20082;-82
2022/10/13 05:36:59;;;;;;;24.00;11.25;;;12.00;99.90;;;;;;5081601;28;20094;-82
2022/10/13 05:39:26;;;;;;;20.52;10.95;;;12.00;99.90;;;;;;5082930;28;20130;-81
2022/10/13 05:41:52;;;;;;;19.67;11.15;;;12.00;99.90;;;;;;5093446;28;20421;-82
2022/10/13 05:44:20;;;;;;;19.67;10.65;;;12.00;99.90;;;;;;5072733;28;20050;-83
2022/10/13 05:46:46;;;;;;;20.85;11.45;;;12.00;99.90;;;;;;5074233;28;20051;-82
2022/10/13 05:49:13;;;;;;;22.80;10.68;;;12.00;99.90;;;;;;5090002;28;20051;-81
2022/10/13 05:51:46;;;;;;;18.55;10.30;;;12.00;99.90;;;;;;5091431;28;20040;-83
2022/10/13 05:54:19;;;;;;;18.90;9.73;;;12.00;99.90;;;;;;5087212;28;20438;-82
2022/10/13 05:56:53;;;;;;;16.15;8.77;;;11.90;99.90;;;;;;5066359;28;20592;-81
2022/10/13 05:59:20;;;;;;;17.10;9.38;;;12.00;99.90;;;;;;5095723;28;20059;-81
2022/10/13 06:01:53;;;;;;;15.55;9.25;;;11.90;99.90;;;;;;5086559;28;20052;-84
2022/10/13 06:04:25;;;;;;;18.52;9.05;;;11.90;99.90;;;;;;5084659;28;20470;-82
2022/10/13 06:06:52;;;;;;;17.23;8.90;;;12.00;99.90;;;;;;5089809;28;20044;-82
2022/10/13 06:09:19;;;;;;;14.45;9.45;;;12.00;99.90;;;;;;5088610;28;20048;-83
2022/10/13 06:11:46;;;;;;;18.02;9.38;;;12.00;99.90;;;;;;5085004;28;20047;-82
2022/10/13 06:14:12;;;;;;;17.67;8.57;;;12.00;99.90;;;;;;5076637;28;20111;-82
2022/10/13 06:16:40;;;;;;;17.83;8.45;;;12.00;99.90;;;;;;5092246;28;20056;-82
2022/10/13 06:19:06;;;;;;;20.48;9.50;;;12.00;99.90;;;;;;5087026;28;20079;-81
2022/10/13 06:21:34;;;;;;;14.48;9.45;;;12.00;99.90;;;;;;5083293;28;20060;-83
2022/10/13 06:24:01;;;;;;;19.73;10.50;;;12.10;99.90;;;;;;5087256;28;20481;-80
2022/10/13 06:26:28;;;;;;;22.10;12.57;;;12.10;99.90;;;;;;5090073;28;20052;-82
2022/10/13 06:28:55;;;;;;;21.30;13.18;;;12.10;99.90;;;;;;5085529;28;20063;-83
2022/10/13 06:31:25;;;;;;;;;;;12.10;99.90;;;;;;5081238;28;20094;-82
2022/10/13 06:33:52;;;;;;;39.83;23.52;;;12.20;99.90;;;;;;5090200;28;19950;-82
2022/10/13 06:36:19;;;;;;;30.25;19.17;;;12.20;99.90;;;;;;5087183;28;20047;-82
2022/10/13 06:38:46;;;;;;;23.48;15.10;;;12.20;99.90;;;;;;5079423;28;20175;-82
2022/10/13 06:41:13;;;;;;;21.67;12.65;;;12.30;99.90;;;;;;5062104;28;20047;-83
2022/10/13 06:43:40;;;;;;;20.25;12.10;;;12.30;99.90;;;;;;5091655;28;20086;-81
2022/10/13 06:46:07;;;;;;;17.38;11.30;;;12.40;99.90;;;;;;5082541;28;20543;-83
2022/10/13 06:48:34;;;;;;;19.85;11.35;;;12.50;99.90;;;;;;5062810;28;20059;-82
2022/10/13 06:51:06;;;;;;;23.08;11.23;;;12.50;99.90;;;;;;5087540;28;20055;-82
2022/10/13 06:53:33;;;;;;;20.65;12.13;;;12.50;99.90;;;;;;5089892;28;20075;-82
2022/10/13 06:56:02;;;;;;;21.38;13.00;;;12.60;99.90;;;;;;5084359;28;20051;-82
2022/10/13 06:58:29;;;;;;;20.75;13.65;;;12.60;99.90;;;;;;5081653;28;20052;-82
2022/10/13 07:00:56;;;;;;;21.92;13.40;;;12.60;99.90;;;;;;5094052;28;20502;-81
2022/10/13 07:03:24;;;;;;;22.45;13.27;;;12.60;99.90;;;;;;5069662;28;20067;-82
2022/10/13 07:05:51;;;;;;;19.63;12.57;;;12.70;99.90;;;;;;5082790;28;20096;-82
2022/10/13 07:08:18;;;;;;;25.98;14.93;;;12.70;99.90;;;;;;5078298;28;20037;-82
2022/10/13 07:10:45;;;;;;;22.35;15.65;;;12.70;99.90;;;;;;5081183;28;20519;-83
2022/10/13 07:13:11;;;;;;;25.73;17.23;;;12.70;99.90;;;;;;5070785;28;20666;-83
2022/10/13 07:15:39;;;;;;;26.88;17.15;;;12.80;99.90;;;;;;5077949;28;20054;-85
2022/10/13 07:18:06;;;;;;;24.58;15.88;;;12.80;99.90;;;;;;5098404;28;20076;-84
2022/10/13 07:20:33;;;;;;;29.55;17.83;;;12.80;99.90;;;;;;5090363;28;20052;-84
2022/10/13 07:23:00;;;;;;;28.40;17.52;;;12.80;99.90;;;;;;5093783;28;20136;-83
2022/10/13 07:25:27;;;;;;;28.13;17.27;;;12.80;99.90;;;;;;5100066;28;20044;-85
2022/10/13 07:27:54;;;;;;;30.45;18.30;;;12.90;99.90;;;;;;5100941;28;20064;-83
2022/10/13 07:30:21;;;;;;;29.60;17.63;;;12.90;99.90;;;;;;5087372;28;20076;-84
2022/10/13 07:32:48;;;;;;;30.60;17.65;;;12.90;99.90;;;;;;5085130;28;20582;-82
2022/10/13 07:35:14;;;;;;;25.48;16.25;;;12.90;99.90;;;;;;5092614;28;20048;-82
2022/10/13 07:37:41;;;;;;;27.63;17.20;;;13.00;99.90;;;;;;5094850;28;20078;-84
2022/10/13 07:40:09;;;;;;;27.30;17.08;;;13.00;99.90;;;;;;5090126;28;20049;-82
2022/10/13 07:42:35;;;;;;;28.42;15.75;;;13.10;99.90;;;;;;5084158;28;20060;-84
2022/10/13 07:45:03;;;;;;;32.70;17.52;;;13.20;99.90;;;;;;5094836;28;20048;-84
2022/10/13 07:47:29;;;;;;;28.40;15.70;;;13.30;99.90;;;;;;5086070;28;20040;-82
2022/10/13 07:49:56;;;;;;;25.58;17.40;;;13.30;99.90;;;;;;5086518;28;20045;-85
2022/10/13 07:52:23;;;;;;;25.50;16.15;;;13.50;99.90;;;;;;5089553;28;20048;-85
2022/10/13 07:54:50;;;;;;;26.83;16.63;;;13.50;99.90;;;;;;5063651;28;20048;-83
2022/10/13 07:57:17;;;;;;;26.13;17.10;;;13.60;99.90;;;;;;5079589;28;20425;-85
2022/10/13 07:59:44;;;;;;;29.50;16.75;;;13.70;99.90;;;;;;5083240;28;20056;-83
2022/10/13 08:02:10;;;;;;;27.83;17.02;;;13.70;99.90;;;;;;5093806;28;20413;-85
2022/10/13 08:04:37;;;;;;;24.30;17.27;;;13.70;99.90;;;;;;5069518;28;20072;-84
2022/10/13 08:07:05;;;;;;;26.42;18.02;;;13.80;99.90;;;;;;5084366;28;20518;-84
2022/10/13 08:09:32;;;;;;;33.45;18.23;;;13.80;99.90;;;;;;5082917;28;20044;-85
2022/10/13 08:11:59;;;;;;;29.92;17.75;;;13.90;99.90;;;;;;5086765;28;20048;-84
2022/10/13 08:14:28;;;;;;;28.67;17.63;;;13.90;99.90;;;;;;5086205;28;20135;-85
2022/10/13 08:16:56;;;;;;;24.52;16.27;;;14.00;99.90;;;;;;5088602;28;20043;-85
2022/10/13 08:19:25;;;;;;;29.27;17.35;;;14.00;99.90;;;;;;5092213;28;20040;-83
2022/10/13 08:21:53;;;;;;;32.92;18.27;;;14.10;99.90;;;;;;5087160;28;20062;-84
2022/10/13 08:24:26;;;;;;;26.02;17.85;;;14.10;99.90;;;;;;5066679;28;20083;-83
2022/10/13 08:26:54;;;;;;;28.17;17.10;;;14.20;99.90;;;;;;5082143;28;20108;-85
2022/10/13 08:29:21;;;;;;;23.90;17.23;;;14.20;99.90;;;;;;5094950;28;20055;-83
2022/10/13 08:31:51;;;;;;;24.20;17.73;;;14.20;99.90;;;;;;5078434;28;20045;-84
2022/10/13 08:34:19;;;;;;;28.65;17.33;;;14.30;99.90;;;;;;5083003;28;20059;-83
2022/10/13 08:36:46;;;;;;;32.10;18.00;;;14.30;99.90;;;;;;5091944;28;20054;-84
2022/10/13 08:39:13;;;;;;;22.15;16.63;;;14.40;99.90;;;;;;5090781;28;20059;-84
2022/10/13 08:41:45;;;;;;;24.27;15.52;;;14.40;99.90;;;;;;5085760;28;20052;-83
2022/10/13 08:44:34;;;;;;;27.23;15.50;;;14.40;99.90;;;;;;5089689;28;20040;-83
2022/10/13 08:47:21;;;;;;;22.13;14.70;;;14.50;99.90;;;;;;5099504;28;20047;-83
2022/10/13 08:49:48;;;;;;;25.90;14.48;;;14.60;99.90;;;;;;5093465;28;20068;-83
2022/10/13 08:52:23;;;;;;;22.63;14.55;;;14.60;99.90;;;;;;5069118;28;20044;-83
2022/10/13 08:54:53;;;;;;;22.92;14.00;;;14.70;99.90;;;;;;5102374;28;20044;-84
2022/10/13 08:57:20;;;;;;;25.50;15.63;;;14.80;99.90;;;;;;5080210;28;20116;-83
2022/10/13 08:59:48;;;;;;;23.50;14.50;;;14.80;99.90;;;;;;5094204;28;20044;-84
2022/10/13 09:02:30;;;;;;;18.02;12.98;;;14.90;99.90;;;;;;5088009;28;20052;-84
2022/10/13 09:05:00;;;;;;;23.30;11.55;;;14.90;99.90;;;;;;5093998;28;20107;-84
2022/10/13 09:07:31;;;;;;;19.17;10.60;;;15.00;99.90;;;;;;5091095;28;20075;-84
2022/10/13 09:09:58;;;;;;;16.00;9.82;;;15.10;99.90;;;;;;5085561;28;20053;-84
2022/10/13 09:12:26;;;;;;;17.25;9.07;;;15.20;99.90;;;;;;5099573;28;20080;-82
2022/10/13 09:15:00;;;;;;;19.92;9.13;;;15.30;99.90;;;;;;5093398;28;20066;-84
2022/10/13 09:17:28;;;;;;;16.70;7.47;;;15.30;99.90;;;;;;5084995;28;20075;-85
2022/10/13 09:20:27;;;;;;;18.13;8.77;;;15.50;99.90;;;;;;5082144;28;20066;-84
2022/10/13 09:23:06;;;;;;;17.17;8.82;;;15.50;99.90;;;;;;5046897;28;20048;-83
2022/10/13 09:25:40;;;;;;;24.65;7.80;;;15.60;99.90;;;;;;5087870;28;20071;-85
2022/10/13 09:28:22;;;;;;;15.60;7.22;;;15.70;99.90;;;;;;5073243;28;20044;-84
2022/10/13 09:31:04;;;;;;;14.52;7.70;;;15.80;99.90;;;;;;5079499;28;20506;-85
2022/10/13 09:33:37;;;;;;;10.32;6.10;;;15.80;99.90;;;;;;5079845;28;20048;-83
2022/10/13 09:36:10;;;;;;;11.10;5.10;;;15.80;99.90;;;;;;5083340;28;20051;-84
2022/10/13 09:38:39;;;;;;;10.90;5.55;;;15.90;99.90;;;;;;5088603;28;20510;-83
2022/10/13 09:41:14;;;;;;;14.05;5.40;;;16.00;99.90;;;;;;5074567;28;20051;-84
2022/10/13 09:43:47;;;;;;;12.25;5.07;;;16.00;99.90;;;;;;5080653;28;20055;-84
2022/10/13 09:46:32;;;;;;;10.55;4.00;;;16.10;99.90;;;;;;5080207;28;20040;-82
2022/10/13 09:49:20;;;;;;;11.35;4.65;;;16.20;99.90;;;;;;5090501;28;20052;-84
2022/10/13 09:51:47;;;;;;;10.25;4.60;;;16.30;99.90;;;;;;5077883;28;20143;-84
2022/10/13 09:54:39;;;;;;;13.98;4.50;;;16.30;99.90;;;;;;5078031;28;20052;-84
2022/10/13 09:57:14;;;;;;;9.32;3.90;;;16.40;99.90;;;;;;5088987;28;20586;-83
2022/10/13 10:00:03;;;;;;;13.02;4.18;;;16.50;99.90;;;;;;5069993;28;20040;-83
2022/10/13 10:02:48;;;;;;;8.05;3.90;;;16.60;99.90;;;;;;5079886;28;20048;-84
2022/10/13 10:05:26;;;;;;;9.32;3.65;;;16.70;99.90;;;;;;5085285;28;20049;-84
2022/10/13 10:07:58;;;;;;;8.02;3.85;;;16.80;99.90;;;;;;5081978;28;20119;-84
2022/10/13 10:10:38;;;;;;;13.93;4.65;;;16.90;99.90;;;;;;5070628;28;20041;-84
2022/10/13 10:13:08;;;;;;;7.75;4.22;;;16.90;99.90;;;;;;5073935;28;20049;-83
2022/10/13 10:16:01;;;;;;;10.48;4.95;;;17.00;99.90;;;;;;5084294;28;20045;-84
2022/10/13 10:18:47;;;;;;;11.20;5.43;;;17.00;99.90;;;;;;5075734;28;20048;-84
2022/10/13 10:21:23;;;;;;;16.35;4.53;;;17.10;99.90;;;;;;5078659;28;20429;-85
2022/10/13 10:23:57;;;;;;;12.15;4.65;;;17.10;99.90;;;;;;5077080;28;20063;-84
2022/10/13 10:26:55;;;;;;;10.80;4.57;;;17.20;99.90;;;;;;5065949;28;20046;-83
2022/10/13 10:29:57;;;;;;;7.80;4.35;;;17.30;99.90;;;;;;5045688;28;20041;-83
2022/10/13 10:33:01;;;;;;;9.43;4.07;;;17.30;99.90;;;;;;5053438;28;20070;-83
2022/10/13 10:35:46;;;;;;;11.73;4.38;;;17.40;99.90;;;;;;5084356;28;20057;-84
2022/10/13 10:38:13;;;;;;;11.75;4.32;;;17.50;99.90;;;;;;5079518;28;20103;-85
2022/10/13 10:40:54;;;;;;;20.25;5.00;;;17.60;99.90;;;;;;5083588;28;20132;-83
2022/10/13 10:43:53;;;;;;;7.32;4.38;;;17.60;99.90;;;;;;5069134;28;20048;-86
2022/10/13 10:46:24;;;;;;;9.52;3.85;;;17.80;99.90;;;;;;5077857;28;20390;-83
2022/10/13 10:48:53;;;;;;;;;;;17.80;99.90;;;;;;5091019;28;20054;-83
2022/10/13 10:51:28;;;;;;;13.07;4.80;;;17.80;99.90;;;;;;5088388;28;19924;-83
2022/10/13 10:54:01;;;;;;;9.52;3.92;;;17.90;99.90;;;;;;5081850;28;20049;-82
2022/10/13 10:56:33;;;;;;;12.23;3.88;;;17.90;99.90;;;;;;5082982;28;20115;-85
2022/10/13 10:59:19;;;;;;;11.63;3.60;;;17.90;99.90;;;;;;5077368;28;20115;-85
2022/10/13 11:01:50;;;;;;;14.00;3.92;;;17.80;99.90;;;;;;5088231;28;20072;-84
2022/10/13 11:04:37;;;;;;;10.10;4.25;;;17.80;99.90;;;;;;5083589;28;20040;-83
2022/10/13 11:07:08;;;;;;;12.98;4.65;;;17.80;99.90;;;;;;5093833;28;20044;-83
2022/10/13 11:09:41;;;;;;;7.22;4.18;;;17.70;99.90;;;;;;5073110;28;20494;-84
2022/10/13 11:12:20;;;;;;;8.18;3.65;;;17.80;99.90;;;;;;5085151;28;20072;-84
2022/10/13 11:15:08;;;;;;;12.17;3.73;;;17.80;99.90;;;;;;5102140;28;20047;-87
2022/10/13 11:17:37;;;;;;;12.23;3.55;;;17.80;99.90;;;;;;5099678;28;20088;-86
2022/10/13 11:20:19;;;;;;;10.75;3.70;;;17.90;99.90;;;;;;5097044;28;20037;-87
2022/10/13 11:22:58;;;;;;;10.80;3.33;;;17.90;99.90;;;;;;5100427;28;20047;-86
2022/10/13 11:25:44;;;;;;;8.05;3.00;;;17.90;99.90;;;;;;5103778;28;20086;-82
2022/10/13 11:28:22;;;;;;;11.90;3.00;;;18.00;99.90;;;;;;5084332;28;20043;-84
2022/10/13 11:30:54;;;;;;;7.72;2.85;;;18.00;99.90;;;;;;5082553;28;20049;-82
2022/10/13 11:33:53;;;;;;;8.68;3.33;;;18.00;99.90;;;;;;5089695;28;20079;-85
2022/10/13 11:36:43;;;;;;;12.55;3.88;;;18.00;99.90;;;;;;5079758;28;20052;-86
2022/10/13 11:39:26;;;;;;;11.47;3.83;;;18.00;99.90;;;;;;5077107;28;20458;-84
2022/10/13 11:42:11;;;;;;;9.57;4.10;;;18.00;99.90;;;;;;5089980;28;20047;-84
2022/10/13 11:45:09;;;;;;;10.00;3.75;;;18.10;99.90;;;;;;5092599;28;20048;-83
2022/10/13 11:48:01;;;;;;;10.40;3.42;;;18.10;99.90;;;;;;5085504;28;20044;-84
2022/10/13 11:50:57;;;;;;;10.48;3.95;;;18.10;99.90;;;;;;5091216;28;20045;-82
2022/10/13 11:53:42;;;;;;;14.98;4.00;;;18.10;99.90;;;;;;5077573;28;20075;-85
2022/10/13 11:56:31;;;;;;;9.35;3.60;;;18.20;99.90;;;;;;5075422;28;20110;-85
2022/10/13 11:58:58;;;;;;;9.57;3.57;;;18.10;99.90;;;;;;5079779;28;20131;-85
2022/10/13 12:01:25;;;;;;;7.70;3.60;;;18.20;99.90;;;;;;5061862;28;20048;-85
2022/10/13 12:03:52;;;;;;;10.55;3.65;;;18.20;99.90;;;;;;5075942;28;20053;-84
2022/10/13 12:06:32;;;;;;;11.85;3.42;;;18.20;99.90;;;;;;5060750;28;20411;-84
2022/10/13 12:09:03;;;;;;;17.27;3.28;;;18.20;99.90;;;;;;5090146;28;20052;-84
2022/10/13 12:11:34;;;;;;;11.65;3.70;;;18.20;99.90;;;;;;5090614;28;20040;-85
2022/10/13 12:14:02;;;;;;;8.13;3.20;;;18.20;99.90;;;;;;5082705;28;20041;-84
2022/10/13 12:16:28;;;;;;;12.32;3.53;;;18.30;99.90;;;;;;5085885;28;20083;-85
2022/10/13 12:19:30;;;;;;;11.45;3.97;;;18.30;99.90;;;;;;5094126;28;20054;-85
2022/10/13 12:21:59;;;;;;;8.02;4.03;;;18.40;99.90;;;;;;5034345;28;20048;-84
2022/10/13 12:24:28;;;;;;;8.47;4.40;;;18.40;99.90;;;;;;5065475;28;20057;-85
2022/10/13 12:26:56;;;;;;;6.85;3.60;;;18.40;99.90;;;;;;5085941;28;20299;-85
2022/10/13 12:29:28;;;;;;;9.70;3.88;;;18.40;99.90;;;;;;5087997;28;20124;-85
2022/10/13 12:32:02;;;;;;;11.82;3.85;;;18.40;99.90;;;;;;5082435;28;20066;-82
2022/10/13 12:34:33;;;;;;;10.32;3.67;;;18.40;99.90;;;;;;5050699;28;20076;-85
2022/10/13 12:37:13;;;;;;;8.93;4.22;;;18.40;99.90;;;;;;5096786;28;20048;-84
2022/10/13 12:39:40;;;;;;;9.95;3.83;;;18.50;99.90;;;;;;5090566;28;20055;-85
2022/10/13 12:42:11;;;;;;;10.70;4.70;;;18.60;99.90;;;;;;5085390;28;20048;-85
2022/10/13 12:44:39;;;;;;;12.77;3.70;;;18.50;99.90;;;;;;5093316;28;20044;-84
2022/10/13 12:47:40;;;;;;;10.82;4.28;;;18.60;99.90;;;;;;5090273;28;20048;-84
2022/10/13 12:50:31;;;;;;;6.20;3.28;;;18.50;99.90;;;;;;5077514;28;20136;-85
2022/10/13 12:53:07;;;;;;;;;;;18.50;99.90;;;;;;5076544;28;20124;-84
2022/10/13 12:55:35;;;;;;;7.28;3.75;;;18.50;99.90;;;;;;5091035;28;19920;-84
2022/10/13 12:58:02;;;;;;;12.90;4.07;;;18.50;99.90;;;;;;5085214;28;20044;-86
2022/10/13 13:00:29;;;;;;;10.32;4.00;;;18.40;99.90;;;;;;5096351;28;20083;-84